createdAt,value
2019-04-10T00:00:51.128Z,80.00
2019-04-10T00:03:31.202Z,80.00
2019-04-10T00:05:52.152Z,80.10
2019-04-10T00:08:22.055Z,80.10
2019-04-10T00:10:54.917Z,80.10
2019-04-10T00:13:28.922Z,80.10
2019-04-10T00:15:59.504Z,80.10
2019-04-10T00:18:29.706Z,80.00
2019-04-10T00:21:01.381Z,80.00
2019-04-10T00:23:33.548Z,80.00
2019-04-10T00:26:03.646Z,80.20
2019-04-10T00:28:36.200Z,80.10
2019-04-10T00:31:05.935Z,80.00
2019-04-10T00:33:35.363Z,80.00
2019-04-10T00:36:04.707Z,80.00
2019-04-10T00:38:34.751Z,80.10
2019-04-10T00:41:04.526Z,80.10
2019-04-10T00:43:35.027Z,80.00
2019-04-10T00:46:04.422Z,80.00
2019-04-10T00:48:34.214Z,79.90
2019-04-10T00:51:06.867Z,80.00
2019-04-10T00:53:37.130Z,80.10
2019-04-10T00:56:06.957Z,80.20
2019-04-10T00:58:37.454Z,80.00
2019-04-10T01:01:07.806Z,80.00
2019-04-10T01:03:43.874Z,80.00
2019-04-10T01:06:15.658Z,80.00
2019-04-10T01:08:45.268Z,80.10
2019-04-10T01:11:15.664Z,80.20
2019-04-10T01:13:45.570Z,80.10
2019-04-10T01:16:16.238Z,80.10
2019-04-10T01:18:48.658Z,80.10
2019-04-10T01:23:53.344Z,80.00
2019-04-10T01:26:23.262Z,80.10
2019-04-10T01:28:54.042Z,80.00
2019-04-10T01:31:23.681Z,80.10
2019-04-10T01:33:53.427Z,80.10
2019-04-10T01:36:23.305Z,80.10
2019-04-10T01:38:53.822Z,80.00
2019-04-10T01:41:23.799Z,80.00
2019-04-10T01:43:55.189Z,80.00
2019-04-10T01:46:24.798Z,81.00
2019-04-10T01:48:55.437Z,80.20
2019-04-10T01:51:25.833Z,80.20
2019-04-10T01:53:56.766Z,80.20
2019-04-10T01:56:31.438Z,80.20
2019-04-10T01:58:57.288Z,80.40
2019-04-10T02:01:34.669Z,80.20
2019-04-10T02:04:06.729Z,80.30
2019-04-10T02:06:35.891Z,80.10
2019-04-10T02:09:11.312Z,80.10
2019-04-10T02:11:42.531Z,80.10
2019-04-10T02:14:12.548Z,80.10
2019-04-10T02:16:43.137Z,80.20
2019-04-10T02:19:12.684Z,80.20
2019-04-10T02:21:42.225Z,80.20
2019-04-10T02:24:11.608Z,80.30
2019-04-10T02:26:41.397Z,80.20
2019-04-10T02:29:11.314Z,80.30
2019-04-10T02:31:41.036Z,80.30
2019-04-10T02:34:10.547Z,80.30
2019-04-10T02:36:40.527Z,80.30
2019-04-10T02:39:21.820Z,80.30
2019-04-10T02:41:41.896Z,80.10
2019-04-10T02:44:12.206Z,80.20
2019-04-10T02:46:41.840Z,80.20
2019-04-10T02:49:12.252Z,80.20
2019-04-10T02:51:43.242Z,80.20
2019-04-10T02:54:13.671Z,80.30
2019-04-10T02:56:47.926Z,80.20
2019-04-10T02:59:21.162Z,80.30
2019-04-10T03:01:51.921Z,80.20
2019-04-10T03:04:22.185Z,80.10
2019-04-10T03:06:53.389Z,80.20
2019-04-10T03:09:37.197Z,80.10
2019-04-10T03:11:55.430Z,80.10
2019-04-10T03:14:26.330Z,80.20
2019-04-10T03:16:56.232Z,80.10
2019-04-10T03:19:27.579Z,80.20
2019-04-10T03:21:57.706Z,80.20
2019-04-10T03:24:27.496Z,80.10
2019-04-10T03:26:58.261Z,80.20
2019-04-10T03:29:27.923Z,80.10
2019-04-10T03:31:59.482Z,80.10
2019-04-10T03:34:36.069Z,80.20
2019-04-10T03:37:03.012Z,80.10
2019-04-10T03:39:35.746Z,80.10
2019-04-10T03:42:04.936Z,80.10
2019-04-10T03:44:38.888Z,80.10
2019-04-10T03:47:09.137Z,80.10
2019-04-10T03:49:39.951Z,80.10
2019-04-10T03:52:10.096Z,80.00
2019-04-10T03:54:40.518Z,80.20
2019-04-10T03:57:10.791Z,80.10
2019-04-10T03:59:42.111Z,80.10
2019-04-10T04:02:13.765Z,80.10
2019-04-10T04:04:43.881Z,80.10
2019-04-10T04:07:13.757Z,80.00
2019-04-10T04:09:43.914Z,80.80
2019-04-10T04:12:15.123Z,80.00
2019-04-10T04:14:46.381Z,80.00
2019-04-10T04:17:16.240Z,80.00
2019-04-10T04:19:46.274Z,80.00
2019-04-10T04:22:16.702Z,80.10
2019-04-10T04:24:48.198Z,79.90
2019-04-10T04:27:20.024Z,80.00
2019-04-10T04:29:49.933Z,79.90
2019-04-10T04:32:22.312Z,79.90
2019-04-10T04:34:54.210Z,80.00
2019-04-10T04:37:25.956Z,80.70
2019-04-10T04:39:58.346Z,79.90
2019-04-10T04:42:30.629Z,80.00
2019-04-10T04:45:00.787Z,80.20
2019-04-10T04:47:31.001Z,80.00
2019-04-10T04:50:01.464Z,79.90
2019-04-10T04:52:31.012Z,80.00
2019-04-10T04:55:02.147Z,80.10
2019-04-10T04:57:34.972Z,80.00
2019-04-10T05:00:06.322Z,79.90
2019-04-10T05:02:39.220Z,80.00
2019-04-10T05:05:10.843Z,80.00
2019-04-10T05:07:41.702Z,80.00
2019-04-10T05:10:15.383Z,80.00
2019-04-10T05:12:47.157Z,80.00
2019-04-10T05:15:18.598Z,80.00
2019-04-10T05:17:51.061Z,80.00
2019-04-10T05:20:21.459Z,80.00
2019-04-10T05:22:52.455Z,79.90
2019-04-10T05:25:23.776Z,80.10
2019-04-10T05:27:53.428Z,79.90
2019-04-10T05:30:22.369Z,80.60
2019-04-10T05:32:53.119Z,79.90
2019-04-10T05:35:23.569Z,79.80
2019-04-10T05:37:52.630Z,79.90
2019-04-10T05:40:21.855Z,79.90
2019-04-10T05:42:50.785Z,80.00
2019-04-10T05:45:21.147Z,80.20
2019-04-10T05:47:50.751Z,80.10
2019-04-10T05:50:19.913Z,80.20
2019-04-10T05:52:49.696Z,80.20
2019-04-10T05:55:18.977Z,80.30
2019-04-10T05:57:51.126Z,80.30
2019-04-10T06:00:21.464Z,80.30
2019-04-10T06:02:52.193Z,81.10
2019-04-10T06:05:22.602Z,80.30
2019-04-10T06:07:52.342Z,80.10
2019-04-10T06:10:21.831Z,80.10
2019-04-10T06:12:51.157Z,80.00
2019-04-10T06:15:21.080Z,80.00
2019-04-10T06:17:51.027Z,79.80
2019-04-10T06:20:25.057Z,80.00
2019-04-10T06:22:57.448Z,79.80
2019-04-10T06:25:28.746Z,79.80
2019-04-10T06:27:58.735Z,79.70
2019-04-10T06:30:28.066Z,79.70
2019-04-10T06:32:58.065Z,79.50
2019-04-10T06:35:32.179Z,79.40
2019-04-10T06:38:02.380Z,79.40
2019-04-10T06:40:31.683Z,79.40
2019-04-10T06:43:01.121Z,79.40
2019-04-10T06:45:31.477Z,79.30
2019-04-10T06:48:00.588Z,79.30
2019-04-10T06:50:30.507Z,79.30
2019-04-10T06:53:00.785Z,79.30
2019-04-10T06:55:30.913Z,79.10
2019-04-10T06:58:01.035Z,79.20
2019-04-10T07:00:30.755Z,79.80
2019-04-10T07:03:00.942Z,79.00
2019-04-10T07:05:37.947Z,79.00
2019-04-10T07:08:09.174Z,79.00
2019-04-10T07:10:42.594Z,79.00
2019-04-10T07:13:06.283Z,79.00
2019-04-10T07:15:33.533Z,78.90
2019-04-10T07:18:03.014Z,78.60
2019-04-10T07:20:31.951Z,78.50
2019-04-10T07:23:01.314Z,78.60
2019-04-10T07:25:30.337Z,78.70
2019-04-10T07:27:59.113Z,78.40
2019-04-10T07:30:47.825Z,78.50
2019-04-10T07:33:19.191Z,78.40
2019-04-10T07:35:47.557Z,78.40
2019-04-10T07:38:16.657Z,78.40
2019-04-10T07:40:46.927Z,78.10
2019-04-10T07:43:18.590Z,78.10
2019-04-10T07:45:47.275Z,78.20
2019-04-10T07:48:16.581Z,78.30
2019-04-10T07:50:46.741Z,78.20
2019-04-10T07:53:16.864Z,78.20
2019-04-10T07:55:56.588Z,78.20
2019-04-10T07:58:17.408Z,78.00
2019-04-10T08:00:46.979Z,77.90
2019-04-10T08:03:16.737Z,77.90
2019-04-10T08:05:46.749Z,77.60
2019-04-10T08:08:17.159Z,77.40
2019-04-10T08:10:47.239Z,77.20
2019-04-10T08:13:16.694Z,77.30
2019-04-10T08:15:46.514Z,77.20
2019-04-10T08:18:16.047Z,77.20
2019-04-10T08:20:45.374Z,77.10
2019-04-10T08:23:14.450Z,76.60
2019-04-10T08:25:43.302Z,76.70
2019-04-10T08:28:12.505Z,77.10
2019-04-10T08:30:41.944Z,76.90
2019-04-10T08:33:11.974Z,76.60
2019-04-10T08:35:41.907Z,76.30
2019-04-10T08:38:13.186Z,76.20
2019-04-10T08:40:42.253Z,74.90
2019-04-10T08:43:11.784Z,75.40
2019-04-10T08:45:47.167Z,75.20
2019-04-10T08:48:11.765Z,75.40
2019-04-10T08:50:41.886Z,74.60
2019-04-10T08:53:11.676Z,74.60
2019-04-10T08:55:40.662Z,74.80
2019-04-10T08:58:10.384Z,74.80
2019-04-10T09:00:40.660Z,73.50
2019-04-10T09:03:10.845Z,73.00
2019-04-10T09:05:40.199Z,71.90
2019-04-10T09:08:10.758Z,73.20
2019-04-10T09:10:40.663Z,73.20
2019-04-10T09:13:10.482Z,73.40
2019-04-10T09:15:40.244Z,73.30
2019-04-10T09:18:11.259Z,72.60
2019-04-10T09:20:42.695Z,73.40
2019-04-10T09:23:27.779Z,73.10
2019-04-10T09:25:43.698Z,72.60
2019-04-10T09:28:14.046Z,72.10
2019-04-10T09:30:44.862Z,71.70
2019-04-10T09:33:21.000Z,72.40
2019-04-10T09:35:45.458Z,72.60
2019-04-10T09:38:19.310Z,73.00
2019-04-10T09:40:48.825Z,72.80
2019-04-10T09:43:17.945Z,72.10
2019-04-10T09:45:48.069Z,72.10
2019-04-10T09:48:17.161Z,71.30
2019-04-10T09:50:46.521Z,71.70
2019-04-10T09:53:16.948Z,71.30
2019-04-10T09:55:46.932Z,71.50
2019-04-10T09:58:17.514Z,72.30
2019-04-10T10:00:48.102Z,71.60
2019-04-10T10:03:17.463Z,71.20
2019-04-10T10:05:46.751Z,71.40
2019-04-10T10:08:16.222Z,71.50
2019-04-10T10:10:45.298Z,70.40
2019-04-10T10:13:15.150Z,71.00
2019-04-10T10:15:45.193Z,70.70
2019-04-10T10:18:14.274Z,70.90
2019-04-10T10:20:43.998Z,70.70
2019-04-10T10:23:13.730Z,70.90
2019-04-10T10:25:43.671Z,70.80
2019-04-10T10:28:13.174Z,70.10
2019-04-10T10:30:42.336Z,70.00
2019-04-10T10:33:11.446Z,68.40
2019-04-10T10:35:41.191Z,69.20
2019-04-10T10:38:10.553Z,69.00
2019-04-10T10:40:39.477Z,68.30
2019-04-10T10:43:08.367Z,68.40
2019-04-10T10:45:37.133Z,68.70
2019-04-10T10:48:08.349Z,69.00
2019-04-10T10:50:37.311Z,68.60
2019-04-10T10:53:06.358Z,67.40
2019-04-10T10:55:35.824Z,68.40
2019-04-10T10:58:05.795Z,68.10
2019-04-10T11:00:35.570Z,68.00
2019-04-10T11:03:05.612Z,68.20
2019-04-10T11:05:35.357Z,67.90
2019-04-10T11:08:05.387Z,66.80
2019-04-10T11:10:35.101Z,66.80
2019-04-10T11:13:04.332Z,67.30
2019-04-10T11:15:34.175Z,67.90
2019-04-10T11:18:04.251Z,67.70
2019-04-10T11:20:34.029Z,67.60
2019-04-10T11:23:03.987Z,67.30
2019-04-10T11:25:32.988Z,67.20
2019-04-10T11:28:01.761Z,67.60
2019-04-10T11:30:32.381Z,66.10
2019-04-10T11:33:02.525Z,67.00
2019-04-10T11:35:31.998Z,66.60
2019-04-10T11:38:02.792Z,65.70
2019-04-10T11:40:34.306Z,65.80
2019-04-10T11:43:05.229Z,65.80
2019-04-10T11:45:41.316Z,65.60
2019-04-10T11:48:06.013Z,65.10
2019-04-10T11:50:35.094Z,64.30
2019-04-10T11:53:04.524Z,66.30
2019-04-10T11:55:46.737Z,64.40
2019-04-10T11:58:13.801Z,63.90
2019-04-10T12:00:50.609Z,63.20
2019-04-10T12:03:13.459Z,62.00
2019-04-10T12:05:46.198Z,63.50
2019-04-10T12:13:17.966Z,63.10
2019-04-10T12:15:46.897Z,64.00
2019-04-10T12:18:16.185Z,63.50
2019-04-10T12:20:45.394Z,63.50
2019-04-10T12:23:14.227Z,63.50
2019-04-10T12:25:43.356Z,63.00
2019-04-10T12:28:12.381Z,63.20
2019-04-10T12:30:45.782Z,63.20
2019-04-10T12:33:14.637Z,63.90
2019-04-10T12:35:44.001Z,63.90
2019-04-10T12:38:13.381Z,63.90
2019-04-10T12:40:42.587Z,64.00
2019-04-10T12:43:12.678Z,63.40
2019-04-10T12:45:41.642Z,62.90
2019-04-10T12:48:10.577Z,63.30
2019-04-10T12:50:39.516Z,62.90
2019-04-10T12:53:09.394Z,63.00
2019-04-10T12:55:38.898Z,62.70
2019-04-10T12:58:13.614Z,61.30
2019-04-10T13:00:38.459Z,62.00
2019-04-10T13:03:08.247Z,62.50
2019-04-10T13:05:38.117Z,62.20
2019-04-10T13:08:19.042Z,62.20
2019-04-10T13:10:37.856Z,62.00
2019-04-10T13:13:06.694Z,62.50
2019-04-10T13:15:37.169Z,62.50
2019-04-10T13:18:06.184Z,60.70
2019-04-10T13:20:35.229Z,62.00
2019-04-10T13:23:04.499Z,61.50
2019-04-10T13:25:34.498Z,60.80
2019-04-10T13:28:03.448Z,59.00
2019-04-10T13:30:44.094Z,60.20
2019-04-10T13:33:03.195Z,60.80
2019-04-10T13:35:32.461Z,61.10
2019-04-10T13:38:01.268Z,60.30
2019-04-10T13:40:30.380Z,60.00
2019-04-10T13:42:59.155Z,59.70
2019-04-10T13:45:29.069Z,60.60
2019-04-10T13:47:58.824Z,59.60
2019-04-10T13:50:27.797Z,59.50
2019-04-10T13:52:57.518Z,58.20
2019-04-10T13:55:26.552Z,58.40
2019-04-10T13:57:55.354Z,59.00
2019-04-10T14:00:30.062Z,59.00
2019-04-10T14:02:59.027Z,59.00
2019-04-10T14:05:30.758Z,59.00
2019-04-10T14:07:59.959Z,58.50
2019-04-10T14:10:29.475Z,59.10
2019-04-10T14:12:59.627Z,58.20
2019-04-10T14:15:30.366Z,58.10
2019-04-10T14:17:59.791Z,58.60
2019-04-10T14:20:29.088Z,59.60
2019-04-10T14:23:15.328Z,59.20
2019-04-10T14:25:52.831Z,57.60
2019-04-10T14:28:24.902Z,57.60
2019-04-10T14:30:55.561Z,57.80
2019-04-10T14:33:24.709Z,58.20
2019-04-10T14:35:53.730Z,57.90
2019-04-10T14:38:23.260Z,57.40
2019-04-10T14:40:52.171Z,58.40
2019-04-10T14:43:21.013Z,58.40
2019-04-10T14:45:50.011Z,58.10
2019-04-10T14:48:20.232Z,57.50
2019-04-10T14:50:49.256Z,57.60
2019-04-10T14:53:19.283Z,56.80
2019-04-10T14:55:49.291Z,56.80
2019-04-10T14:58:26.346Z,56.90
2019-04-10T15:00:50.213Z,57.90
2019-04-10T15:03:20.921Z,56.50
2019-04-10T15:05:53.848Z,57.10
2019-04-10T15:08:21.992Z,55.50
2019-04-10T15:10:51.209Z,57.20
2019-04-10T15:13:22.444Z,57.00
2019-04-10T15:15:51.087Z,57.20
2019-04-10T15:18:20.513Z,56.30
2019-04-10T15:20:49.421Z,56.40
2019-04-10T15:23:18.522Z,55.90
2019-04-10T15:25:47.480Z,55.80
2019-04-10T15:28:16.742Z,55.70
2019-04-10T15:30:46.603Z,55.40
2019-04-10T15:33:15.734Z,54.70
2019-04-10T15:35:45.375Z,55.80
2019-04-10T15:38:14.714Z,55.30
2019-04-10T15:40:44.072Z,54.40
2019-04-10T15:43:13.298Z,55.00
2019-04-10T15:45:42.123Z,54.70
2019-04-10T15:48:12.407Z,55.10
2019-04-10T15:50:41.715Z,55.20
2019-04-10T15:53:11.654Z,55.00
2019-04-10T15:55:40.943Z,54.60
2019-04-10T15:58:10.801Z,54.80
2019-04-10T16:00:40.034Z,55.00
2019-04-10T16:03:09.225Z,55.00
2019-04-10T16:08:14.237Z,55.40
2019-04-10T16:11:05.617Z,55.30
2019-04-10T16:13:44.279Z,55.60
2019-04-10T16:16:48.777Z,56.00
2019-04-10T16:19:30.937Z,56.60
2019-04-10T16:22:01.087Z,56.40
2019-04-10T16:24:31.065Z,56.40
2019-04-10T16:27:00.308Z,56.50
2019-04-10T16:29:29.381Z,55.50
2019-04-10T16:31:58.690Z,55.80
2019-04-10T16:34:27.991Z,56.10
2019-04-10T16:36:57.699Z,56.40
2019-04-10T16:39:27.828Z,55.90
2019-04-10T16:41:57.940Z,56.30
2019-04-10T16:44:27.010Z,56.20
2019-04-10T16:46:57.425Z,56.30
2019-04-10T16:49:27.227Z,56.10
2019-04-10T16:51:56.850Z,56.00
2019-04-10T16:54:27.126Z,56.40
2019-04-10T16:56:56.681Z,56.80
2019-04-10T16:59:26.217Z,56.90
2019-04-10T17:01:55.419Z,56.80
2019-04-10T17:04:25.702Z,57.00
2019-04-10T17:06:54.904Z,57.10
2019-04-10T17:09:26.917Z,57.20
2019-04-10T17:11:57.086Z,57.00
2019-04-10T17:14:27.177Z,57.40
2019-04-10T17:16:56.373Z,57.60
2019-04-10T17:19:25.783Z,57.40
2019-04-10T17:21:54.937Z,57.50
2019-04-10T17:24:25.070Z,57.00
2019-04-10T17:26:55.052Z,57.80
2019-04-10T17:29:25.111Z,57.50
2019-04-10T17:31:55.040Z,57.80
2019-04-10T17:34:24.948Z,57.70
2019-04-10T17:36:54.493Z,57.80
2019-04-10T17:39:25.176Z,57.90
2019-04-10T17:41:55.634Z,57.70
2019-04-10T17:44:25.572Z,57.80
2019-04-10T17:46:55.632Z,57.90
2019-04-10T17:49:25.611Z,58.90
2019-04-10T17:51:56.486Z,58.80
2019-04-10T17:54:26.828Z,58.80
2019-04-10T17:56:57.468Z,59.00
2019-04-10T17:59:26.729Z,59.00
2019-04-10T18:01:59.038Z,59.20
2019-04-10T18:04:28.313Z,59.30
2019-04-10T18:06:57.510Z,59.20
2019-04-10T18:09:27.705Z,59.60
2019-04-10T18:12:00.848Z,59.40
2019-04-10T18:14:31.307Z,59.60
2019-04-10T18:17:01.018Z,59.80
2019-04-10T18:19:30.373Z,59.80
2019-04-10T18:22:00.515Z,59.90
2019-04-10T18:24:30.424Z,59.90
2019-04-10T18:27:01.110Z,59.90
2019-04-10T18:29:30.948Z,60.00
2019-04-10T18:32:02.121Z,59.90
2019-04-10T18:34:31.157Z,59.90
2019-04-10T18:37:02.415Z,60.10
2019-04-10T18:39:32.404Z,60.30
2019-04-10T18:42:03.415Z,60.30
2019-04-10T18:44:33.100Z,60.50
2019-04-10T18:47:02.811Z,60.40
2019-04-10T18:49:32.403Z,60.60
2019-04-10T18:52:01.923Z,60.60
2019-04-10T18:54:31.822Z,60.80
2019-04-10T18:57:01.901Z,60.80
2019-04-10T19:00:02.566Z,61.00
2019-04-10T19:02:50.983Z,61.00
2019-04-10T19:05:33.986Z,61.10
2019-04-10T19:08:03.060Z,61.10
2019-04-10T19:10:32.652Z,61.20
2019-04-10T19:13:01.669Z,61.30
2019-04-10T19:15:31.079Z,61.50
2019-04-10T19:18:01.448Z,61.60
2019-04-10T19:20:31.323Z,61.60
2019-04-10T19:23:01.404Z,61.60
2019-04-10T19:25:30.534Z,61.50
2019-04-10T19:28:00.352Z,61.70
2019-04-10T19:30:42.062Z,61.70
2019-04-10T19:33:12.025Z,61.80
2019-04-10T19:35:41.424Z,61.90
2019-04-10T19:40:44.389Z,62.00
2019-04-10T19:43:13.823Z,61.90
2019-04-10T19:45:43.908Z,61.90
2019-04-10T19:48:15.309Z,62.00
2019-04-10T19:50:44.350Z,62.10
2019-04-10T19:53:13.494Z,62.10
2019-04-10T19:55:42.254Z,62.10
2019-04-10T19:58:12.376Z,62.20
2019-04-10T20:00:41.565Z,62.10
2019-04-10T20:03:11.184Z,62.30
2019-04-10T20:05:41.385Z,62.40
2019-04-10T20:08:12.746Z,62.40
2019-04-10T20:10:41.533Z,62.50
2019-04-10T20:13:10.343Z,63.10
2019-04-10T20:15:39.126Z,62.60
2019-04-10T20:18:08.611Z,62.50
2019-04-10T20:20:37.585Z,62.60
2019-04-10T20:23:06.786Z,62.50
2019-04-10T20:25:36.736Z,62.60
2019-04-10T20:28:06.866Z,62.70
2019-04-10T20:30:37.044Z,62.70
2019-04-10T20:33:10.825Z,63.70
2019-04-10T20:35:40.454Z,62.80
2019-04-10T20:38:09.507Z,62.90
2019-04-10T20:40:38.606Z,62.90
2019-04-10T20:43:08.784Z,63.10
2019-04-10T20:45:38.028Z,63.00
2019-04-10T20:48:09.581Z,62.90
2019-04-10T20:50:38.366Z,63.00
2019-04-10T20:53:07.513Z,63.10
2019-04-10T20:55:37.657Z,63.20
2019-04-10T20:58:07.031Z,63.10
2019-04-10T21:00:43.099Z,63.10
2019-04-10T21:03:13.506Z,63.00
2019-04-10T21:05:42.766Z,63.10
2019-04-10T21:08:11.958Z,63.10
2019-04-10T21:10:41.149Z,63.30
2019-04-10T21:13:10.274Z,63.20
2019-04-10T21:15:39.345Z,63.20
2019-04-10T21:18:08.914Z,63.30
2019-04-10T21:20:47.012Z,63.30
2019-04-10T21:23:17.855Z,63.10
2019-04-10T21:25:47.656Z,63.20
2019-04-10T21:28:18.303Z,63.20
2019-04-10T21:31:05.425Z,63.20
2019-04-10T21:33:39.302Z,63.20
2019-04-10T21:36:09.451Z,63.30
2019-04-10T21:41:13.827Z,63.20
2019-04-10T21:43:43.250Z,63.20
2019-04-10T21:46:12.371Z,63.30
2019-04-10T21:48:41.997Z,63.20
2019-04-10T21:51:10.998Z,63.30
2019-04-10T21:53:40.900Z,63.30
2019-04-10T21:56:10.433Z,63.40
2019-04-10T21:58:39.312Z,64.00
2019-04-10T22:01:10.502Z,63.30
2019-04-10T22:03:43.560Z,63.30
2019-04-10T22:06:31.918Z,63.50
2019-04-10T22:09:24.533Z,63.40
2019-04-10T22:11:55.341Z,63.50
2019-04-10T22:14:24.611Z,63.60
2019-04-10T22:16:54.472Z,63.70
2019-04-10T22:19:24.021Z,63.80
2019-04-10T22:21:53.720Z,63.80
2019-04-10T22:24:23.525Z,64.60
2019-04-10T22:26:52.470Z,63.90
2019-04-10T22:29:21.794Z,64.00
2019-04-10T22:31:51.304Z,64.20
2019-04-10T22:34:21.294Z,64.10
2019-04-10T22:36:50.882Z,64.30
2019-04-10T22:39:19.888Z,64.40
2019-04-10T22:41:48.925Z,64.50
2019-04-10T22:44:18.153Z,64.50
2019-04-10T22:46:47.258Z,64.50
2019-04-10T22:49:16.454Z,64.60
2019-04-10T22:51:46.025Z,64.70
2019-04-10T22:54:15.085Z,64.70
2019-04-10T22:56:44.246Z,64.80
2019-04-10T22:59:13.591Z,64.70
2019-04-10T23:01:43.298Z,64.90
2019-04-10T23:04:12.297Z,64.90
2019-04-10T23:06:41.611Z,65.10
2019-04-10T23:09:11.970Z,64.90
2019-04-10T23:11:43.556Z,64.90
2019-04-10T23:14:12.332Z,65.00
2019-04-10T23:16:41.353Z,65.00
2019-04-10T23:19:10.140Z,65.00
2019-04-10T23:21:40.760Z,65.00
2019-04-10T23:24:10.153Z,65.10
2019-04-10T23:26:39.542Z,65.00
2019-04-10T23:29:08.533Z,65.20
2019-04-10T23:31:37.633Z,65.10
2019-04-10T23:34:08.406Z,65.20
2019-04-10T23:36:38.151Z,65.30
2019-04-10T23:39:08.297Z,65.20
2019-04-10T23:41:37.915Z,65.20
2019-04-10T23:44:07.015Z,65.30
2019-04-10T23:46:36.763Z,65.40
2019-04-10T23:49:05.785Z,65.50
2019-04-10T23:51:34.890Z,65.40
2019-04-10T23:54:04.789Z,65.50
2019-04-10T23:56:33.660Z,65.50
2019-04-10T23:59:02.530Z,65.60
